Harrison, MI (48625)

6:46 AM EDT on June 30, 2015 (GMT -0400)
Bertha Lake | | Change Station
CLOSE
Current Station
Personal Weather Station
Location: Harrison, MI
Elevation: 1158 ft
Nearby Weather Stations

Elev 1158 ft 43.94 °N, 84.89 °W | Updated 11 minutes ago

Partly Cloudy
Partly Cloudy
53.2 °F
Feels Like 53.2 °F
N
0.0
Wind Variable Wind from ENE

Today
High -- | Low -- °F
--% Chance of Precip.
Yesterday
High -- | Low -- °F
Precip. -- in
5:59 AM 9:26 PM
Waxing Gibbous, 97% visible
Pressure 29.80 in
Visibility 4.0 miles
Clouds Overcast 4600 ft
Dew Point 51 °F
Humidity 91%
Rainfall in
Snow Depth Not available.
UV 0 out of 12
Pollen 4.90 out of 12
Air Quality Not available.
Flu Activity Sporadic
METAR KMOP 301037Z AUTO 00000KT 4SM BR OVC046 13/13 A2980 RMK AO2 T01320127

More Conditions Fewer Conditions

Pressure 29.80 in
Visibility 4.0 miles
Clouds Overcast 4600 ft
Dew Point 51 °F
Humidity 91%
Rainfall in
Snow Depth Not available.
UV 0 out of 12
Pollen 4.90 out of 12
Air Quality Not available.
Flu Activity Sporadic
METAR KMOP 301037Z AUTO 00000KT 4SM BR OVC046 13/13 A2980 RMK AO2 T01320127

More Conditions Fewer Conditions

10-Day Weather Forecast

×

Almanac

Astronomy

Jun. 30, 2015 Rise Set
Actual Time
Civil Twilight
Nautical Twilight
Astronomical Twilight
Moon
Length of Visible Light
Length of Day
Tomorrow will be .
, % of the Moon is Illuminated

Today's Extremes

State Highs State Lows

Community

WunderPhotos

Upload Photos

1,833,977 photos uploaded!

WunderBlogs® & News

Nearby

Air Quality

  Air Quality AQ Index Pollutant
Not available.

Snow Depth

Station Depth Elevation

Earthquake Activity

City Distance Mag. Time & Date
Minimum magnitude displayed is 2.5.

Coastal Water Temperatures

Place Temperature

Stations

Nearby Weather Stations

Station Location Temp. Windchill Dew Point Humidity Wind Precip. Elev Updated Type